createdAt,value
2018-07-11T00:00:36.451Z,15.29
2018-07-11T00:01:36.451Z,15.25
2018-07-11T00:02:36.464Z,15.11
2018-07-11T00:03:36.435Z,15.02
2018-07-11T00:04:36.444Z,15.02
2018-07-11T00:05:36.447Z,14.99
2018-07-11T00:06:36.437Z,15.03
2018-07-11T00:07:36.420Z,14.94
2018-07-11T00:08:36.361Z,14.89
2018-07-11T00:09:36.364Z,14.83
2018-07-11T00:10:36.341Z,14.91
2018-07-11T00:11:36.393Z,14.98
2018-07-11T00:12:36.316Z,14.91
2018-07-11T00:13:36.341Z,14.88
2018-07-11T00:14:36.308Z,14.94
2018-07-11T00:15:36.323Z,14.91
2018-07-11T00:16:36.295Z,14.91
2018-07-11T00:17:36.316Z,14.92
2018-07-11T00:18:36.271Z,14.84
2018-07-11T00:19:36.260Z,15.01
2018-07-11T00:20:36.273Z,15.06
2018-07-11T00:21:36.224Z,14.98
2018-07-11T00:22:36.205Z,14.92
2018-07-11T00:23:36.254Z,14.94
2018-07-11T00:24:36.222Z,15.01
2018-07-11T00:25:36.177Z,15.02
2018-07-11T00:26:36.182Z,14.99
2018-07-11T00:27:36.191Z,15.06
2018-07-11T00:28:36.166Z,15.11
2018-07-11T00:29:36.189Z,15.02
2018-07-11T00:30:36.125Z,15.03
2018-07-11T00:31:36.158Z,14.96
2018-07-11T00:32:36.135Z,15.03
2018-07-11T00:33:36.094Z,15.01
2018-07-11T00:34:40.925Z,15.01
2018-07-11T00:35:36.140Z,15.09
2018-07-11T00:36:36.078Z,15.14
2018-07-11T00:37:36.110Z,15.10
2018-07-11T00:38:36.039Z,15.20
2018-07-11T00:39:36.054Z,15.16
2018-07-11T00:40:36.027Z,15.14
2018-07-11T00:41:36.083Z,15.14
2018-07-11T00:42:36.002Z,15.02
2018-07-11T00:43:36.035Z,15.03
2018-07-11T00:44:36.000Z,15.02
2018-07-11T00:45:35.988Z,15.06
2018-07-11T00:46:35.975Z,15.09
2018-07-11T00:47:35.996Z,14.98
2018-07-11T00:48:36.059Z,14.92
2018-07-11T00:49:35.966Z,14.89
2018-07-11T00:50:35.959Z,14.91
2018-07-11T00:51:35.932Z,14.96
2018-07-11T00:52:35.938Z,14.91
2018-07-11T00:53:35.876Z,14.86
2018-07-11T00:54:35.908Z,14.89
2018-07-11T00:55:35.913Z,14.89
2018-07-11T00:56:35.855Z,14.81
2018-07-11T00:57:35.846Z,14.91
2018-07-11T00:58:35.887Z,14.91
2018-07-11T00:59:35.875Z,14.78
2018-07-11T01:00:35.856Z,14.78
2018-07-11T01:01:35.814Z,14.78
2018-07-11T01:02:35.827Z,14.70
2018-07-11T01:03:35.788Z,14.72
2018-07-11T01:04:35.829Z,14.73
2018-07-11T01:05:35.781Z,14.69
2018-07-11T01:06:35.750Z,14.77
2018-07-11T01:07:35.769Z,14.65
2018-07-11T01:08:35.740Z,14.68
2018-07-11T01:09:35.764Z,14.64
2018-07-11T01:10:35.771Z,14.58
2018-07-11T01:11:35.678Z,14.62
2018-07-11T01:12:35.683Z,14.61
2018-07-11T01:13:35.676Z,14.65
2018-07-11T01:14:35.679Z,14.61
2018-07-11T01:15:35.653Z,14.68
2018-07-11T01:16:36.710Z,14.57
2018-07-11T01:17:35.626Z,14.65
2018-07-11T01:18:35.638Z,14.58
2018-07-11T01:19:35.631Z,14.54
2018-07-11T01:20:35.630Z,14.51
2018-07-11T01:21:35.652Z,14.50
2018-07-11T01:22:35.647Z,14.47
2018-07-11T01:23:35.620Z,14.36
2018-07-11T01:24:35.615Z,14.45
2018-07-11T01:25:35.588Z,14.45
2018-07-11T01:26:35.560Z,14.42
2018-07-11T01:27:35.552Z,14.39
2018-07-11T01:28:35.568Z,14.36
2018-07-11T01:29:35.501Z,14.36
2018-07-11T01:30:35.528Z,14.39
2018-07-11T01:31:35.507Z,14.43
2018-07-11T01:32:35.470Z,14.51
2018-07-11T01:33:35.474Z,14.43
2018-07-11T01:34:35.506Z,14.46
2018-07-11T01:35:40.225Z,14.47
2018-07-11T01:36:35.443Z,14.51
2018-07-11T01:37:35.473Z,14.50
2018-07-11T01:38:35.416Z,14.51
2018-07-11T01:39:35.413Z,14.52
2018-07-11T01:40:35.429Z,14.62
2018-07-11T01:41:35.395Z,14.60
2018-07-11T01:42:35.376Z,14.61
2018-07-11T01:43:35.386Z,14.60
2018-07-11T01:44:35.384Z,14.57
2018-07-11T01:45:35.344Z,14.54
2018-07-11T01:46:35.365Z,14.55
2018-07-11T01:47:35.306Z,14.55
2018-07-11T01:48:35.282Z,14.47
2018-07-11T01:49:35.302Z,14.43
2018-07-11T01:50:35.280Z,14.52
2018-07-11T01:52:44.484Z,14.37
2018-07-11T01:53:44.348Z,14.17
2018-07-11T01:54:44.255Z,14.29
2018-07-11T01:55:44.236Z,14.17
2018-07-11T01:56:44.237Z,14.17
2018-07-11T01:57:44.286Z,14.14
2018-07-11T01:58:44.199Z,14.09
2018-07-11T01:59:44.200Z,14.14
2018-07-11T02:00:44.190Z,14.17
2018-07-11T02:01:44.189Z,14.15
2018-07-11T02:02:44.185Z,14.20
2018-07-11T02:03:44.188Z,14.24
2018-07-11T02:04:44.157Z,14.35
2018-07-11T02:05:44.142Z,14.35
2018-07-11T02:06:44.139Z,14.20
2018-07-11T02:07:44.148Z,14.37
2018-07-11T02:08:44.123Z,14.32
2018-07-11T02:09:44.134Z,14.24
2018-07-11T02:10:44.085Z,14.32
2018-07-11T02:11:44.088Z,14.28
2018-07-11T02:12:44.064Z,14.36
2018-07-11T02:13:44.103Z,14.35
2018-07-11T02:14:44.068Z,14.24
2018-07-11T02:15:44.048Z,14.28
2018-07-11T02:16:44.035Z,14.18
2018-07-11T02:17:43.995Z,14.20
2018-07-11T02:18:44.008Z,14.18
2018-07-11T02:19:43.991Z,14.17
2018-07-11T02:20:43.953Z,14.06
2018-07-11T02:21:43.996Z,14.09
2018-07-11T02:22:43.935Z,13.99
2018-07-11T02:23:43.929Z,13.96
2018-07-11T02:24:43.955Z,14.03
2018-07-11T02:25:43.941Z,14.06
2018-07-11T02:26:43.946Z,14.04
2018-07-11T02:27:43.903Z,14.09
2018-07-11T02:28:43.872Z,14.00
2018-07-11T02:29:43.854Z,14.06
2018-07-11T02:30:43.856Z,14.06
2018-07-11T02:31:43.857Z,14.10
2018-07-11T02:32:43.878Z,14.07
2018-07-11T02:33:43.841Z,14.06
2018-07-11T02:34:43.825Z,14.02
2018-07-11T02:35:43.792Z,14.04
2018-07-11T02:36:48.574Z,14.07
2018-07-11T02:37:43.768Z,14.03
2018-07-11T02:38:43.782Z,13.99
2018-07-11T02:39:43.787Z,13.96
2018-07-11T02:40:43.760Z,13.99
2018-07-11T02:41:43.740Z,14.03
2018-07-11T02:42:43.724Z,14.07
2018-07-11T02:43:43.717Z,14.10
2018-07-11T02:44:43.739Z,14.17
2018-07-11T02:45:43.690Z,14.18
2018-07-11T02:46:43.718Z,14.32
2018-07-11T02:47:43.685Z,14.27
2018-07-11T02:48:43.655Z,14.35
2018-07-11T02:49:43.626Z,14.36
2018-07-11T02:50:45.772Z,14.36
2018-07-11T02:51:43.619Z,14.45
2018-07-11T02:52:43.614Z,14.43
2018-07-11T02:53:43.625Z,14.45
2018-07-11T02:54:43.584Z,14.36
2018-07-11T02:55:43.598Z,14.39
2018-07-11T02:56:43.607Z,14.46
2018-07-11T02:57:43.574Z,14.40
2018-07-11T02:58:43.543Z,14.45
2018-07-11T02:59:43.554Z,14.50
2018-07-11T03:00:43.531Z,14.50
2018-07-11T03:01:43.518Z,14.52
2018-07-11T03:02:43.546Z,14.45
2018-07-11T03:03:43.484Z,14.40
2018-07-11T03:04:43.490Z,14.47
2018-07-11T03:05:43.495Z,14.43
2018-07-11T03:06:43.470Z,14.35
2018-07-11T03:07:43.498Z,14.47
2018-07-11T03:08:43.475Z,14.36
2018-07-11T03:09:43.442Z,14.46
2018-07-11T03:10:43.411Z,14.43
2018-07-11T03:11:43.397Z,14.40
2018-07-11T03:12:43.390Z,14.45
2018-07-11T03:13:43.402Z,14.43
2018-07-11T03:14:43.407Z,14.42
2018-07-11T03:15:43.385Z,14.40
2018-07-11T03:16:43.344Z,14.51
2018-07-11T03:17:43.363Z,14.45
2018-07-11T03:18:43.311Z,14.42
2018-07-11T03:19:43.311Z,14.42
2018-07-11T03:20:43.331Z,14.37
2018-07-11T03:21:43.309Z,14.21
2018-07-11T03:22:43.263Z,14.37
2018-07-11T03:23:43.284Z,14.37
2018-07-11T03:24:43.289Z,14.36
2018-07-11T03:25:43.265Z,14.35
2018-07-11T03:26:43.284Z,14.29
2018-07-11T03:27:43.225Z,14.33
2018-07-11T03:28:43.262Z,14.35
2018-07-11T03:29:43.224Z,14.37
2018-07-11T03:30:43.195Z,14.37
2018-07-11T03:31:43.205Z,14.51
2018-07-11T03:32:43.225Z,14.42
2018-07-11T03:33:43.198Z,14.42
2018-07-11T03:34:43.813Z,14.39
2018-07-11T03:35:43.628Z,14.46
2018-07-11T03:36:43.120Z,14.42
2018-07-11T03:37:47.943Z,14.39
2018-07-11T03:38:43.119Z,14.33
2018-07-11T03:39:43.111Z,14.28
2018-07-11T03:40:43.064Z,14.24
2018-07-11T03:41:43.088Z,14.27
2018-07-11T03:42:43.069Z,14.25
2018-07-11T03:43:43.064Z,14.36
2018-07-11T03:44:43.103Z,14.36
2018-07-11T03:45:43.047Z,14.33
2018-07-11T03:46:43.060Z,14.29
2018-07-11T03:47:43.013Z,14.37
2018-07-11T03:48:43.003Z,14.24
2018-07-11T03:49:43.023Z,14.10
2018-07-11T03:50:43.036Z,14.06
2018-07-11T03:51:42.999Z,14.07
2018-07-11T03:52:42.947Z,13.96
2018-07-11T03:53:43.001Z,14.07
2018-07-11T03:54:42.921Z,14.06
2018-07-11T03:55:42.970Z,13.92
2018-07-11T03:56:43.025Z,14.03
2018-07-11T03:57:42.955Z,14.04
2018-07-11T03:58:42.884Z,14.06
2018-07-11T03:59:42.862Z,14.07
2018-07-11T04:00:42.848Z,14.07
2018-07-11T04:01:42.867Z,14.00
2018-07-11T04:02:42.914Z,13.95
2018-07-11T04:03:43.189Z,13.96
2018-07-11T04:04:42.845Z,13.97
2018-07-11T04:05:42.841Z,14.06
2018-07-11T04:06:42.795Z,14.03
2018-07-11T04:07:42.798Z,13.99
2018-07-11T04:08:42.801Z,13.92
2018-07-11T04:09:42.756Z,13.88
2018-07-11T04:10:42.782Z,13.91
2018-07-11T04:11:42.731Z,13.97
2018-07-11T04:12:42.738Z,13.89
2018-07-11T04:13:42.782Z,13.82
2018-07-11T04:14:42.745Z,13.82
2018-07-11T04:15:42.721Z,13.82
2018-07-11T04:16:42.689Z,13.81
2018-07-11T04:17:42.712Z,13.85
2018-07-11T04:18:42.681Z,13.82
2018-07-11T04:19:42.676Z,13.85
2018-07-11T04:20:42.633Z,13.84
2018-07-11T04:21:42.620Z,13.87
2018-07-11T04:22:42.635Z,13.85
2018-07-11T04:23:42.608Z,13.67
2018-07-11T04:24:42.623Z,13.79
2018-07-11T04:25:42.622Z,13.81
2018-07-11T04:26:42.585Z,13.88
2018-07-11T04:27:42.571Z,13.87
2018-07-11T04:28:42.590Z,13.96
2018-07-11T04:29:42.551Z,13.87
2018-07-11T04:30:42.546Z,13.84
2018-07-11T04:31:42.599Z,13.81
2018-07-11T04:32:42.533Z,13.87
2018-07-11T04:33:42.502Z,13.89
2018-07-11T04:34:42.568Z,13.84
2018-07-11T04:35:42.480Z,13.96
2018-07-11T04:36:42.511Z,14.03
2018-07-11T04:37:42.484Z,14.04
2018-07-11T04:38:42.531Z,14.09
2018-07-11T04:39:47.207Z,14.04
2018-07-11T04:40:42.416Z,14.17
2018-07-11T04:41:42.412Z,14.09
2018-07-11T04:42:42.384Z,14.04
2018-07-11T04:43:42.432Z,14.18
2018-07-11T04:44:42.378Z,14.15
2018-07-11T04:45:42.418Z,14.20
2018-07-11T04:46:42.355Z,14.21
2018-07-11T04:47:42.354Z,14.21
2018-07-11T04:48:42.326Z,14.24
2018-07-11T04:49:42.367Z,14.33
2018-07-11T04:50:42.312Z,14.29
2018-07-11T04:51:42.327Z,14.25
2018-07-11T04:52:42.343Z,14.33
2018-07-11T04:53:42.266Z,14.28
2018-07-11T04:54:42.281Z,14.32
2018-07-11T04:55:42.257Z,14.36
2018-07-11T04:56:42.266Z,14.35
2018-07-11T04:57:42.226Z,14.36
2018-07-11T04:58:42.211Z,14.51
2018-07-11T04:59:42.204Z,14.45
2018-07-11T05:00:42.199Z,14.40
2018-07-11T05:01:42.217Z,14.29
2018-07-11T05:02:42.166Z,14.35
2018-07-11T05:03:42.129Z,14.32
2018-07-11T05:04:42.150Z,14.24
2018-07-11T05:05:42.137Z,14.17
2018-07-11T05:06:42.152Z,14.21
2018-07-11T05:07:42.159Z,14.15
2018-07-11T05:08:42.090Z,14.29
2018-07-11T05:09:42.079Z,14.36
2018-07-11T05:10:42.093Z,14.20
2018-07-11T05:11:42.062Z,14.33
2018-07-11T05:12:42.051Z,14.21
2018-07-11T05:13:42.111Z,14.28
2018-07-11T05:14:42.015Z,14.24
2018-07-11T05:15:42.018Z,14.24
2018-07-11T05:16:42.026Z,14.20
2018-07-11T05:17:41.990Z,14.17
2018-07-11T05:18:42.018Z,14.18
2018-07-11T05:19:41.967Z,14.15
2018-07-11T05:20:41.973Z,14.20
2018-07-11T05:21:41.945Z,14.17
2018-07-11T05:22:41.954Z,14.24
2018-07-11T05:23:41.924Z,14.24
2018-07-11T05:24:41.971Z,14.22
2018-07-11T05:25:41.913Z,14.20
2018-07-11T05:26:41.883Z,14.27
2018-07-11T05:27:41.944Z,14.20
2018-07-11T05:28:41.866Z,14.25
2018-07-11T05:29:41.917Z,14.29
2018-07-11T05:30:41.874Z,14.20
2018-07-11T05:31:41.825Z,14.28
2018-07-11T05:32:41.841Z,14.35
2018-07-11T05:33:41.818Z,14.39
2018-07-11T05:34:41.826Z,14.42
2018-07-11T05:35:41.798Z,14.43
2018-07-11T05:36:41.823Z,14.37
2018-07-11T05:37:41.784Z,14.47
2018-07-11T05:38:41.767Z,14.52
2018-07-11T05:39:41.779Z,14.46
2018-07-11T05:40:46.540Z,14.54
2018-07-11T05:41:41.769Z,14.62
2018-07-11T05:42:41.763Z,14.57
2018-07-11T05:43:41.705Z,14.64
2018-07-11T05:44:41.690Z,14.55
2018-07-11T05:45:41.667Z,14.58
2018-07-11T05:46:41.658Z,14.62
2018-07-11T05:47:41.717Z,14.54
2018-07-11T05:48:41.671Z,14.50
2018-07-11T05:49:41.625Z,14.57
2018-07-11T05:50:41.640Z,14.47
2018-07-11T05:51:41.612Z,14.55
2018-07-11T05:52:41.592Z,14.51
2018-07-11T05:53:41.628Z,14.47
2018-07-11T05:54:41.587Z,14.47
2018-07-11T05:55:41.634Z,14.54
2018-07-11T05:56:41.548Z,14.47
2018-07-11T05:57:41.563Z,14.55
2018-07-11T05:58:41.566Z,14.55
2018-07-11T05:59:41.557Z,14.51
2018-07-11T06:00:43.123Z,14.52
2018-07-11T06:01:41.554Z,14.60
2018-07-11T06:02:41.588Z,14.65
2018-07-11T06:03:41.483Z,14.62
2018-07-11T06:04:43.815Z,14.69
2018-07-11T06:05:41.452Z,14.62
2018-07-11T06:06:41.455Z,14.61
2018-07-11T06:07:41.429Z,14.69
2018-07-11T06:08:41.456Z,14.64
2018-07-11T06:09:41.439Z,14.65
2018-07-11T06:10:41.648Z,14.73
2018-07-11T06:11:41.415Z,14.68
2018-07-11T06:12:43.185Z,14.77
2018-07-11T06:13:41.431Z,14.69
2018-07-11T06:14:41.355Z,14.77
2018-07-11T06:15:41.344Z,14.65
2018-07-11T06:16:41.448Z,14.68
2018-07-11T06:17:41.329Z,14.64
2018-07-11T06:18:41.344Z,14.68
2018-07-11T06:19:41.296Z,14.65
2018-07-11T06:20:41.326Z,14.65
2018-07-11T06:21:41.277Z,14.62
2018-07-11T06:22:41.313Z,14.65
2018-07-11T06:23:41.287Z,14.65
2018-07-11T06:24:41.251Z,14.62
2018-07-11T06:25:41.258Z,14.72
2018-07-11T06:26:41.231Z,14.72
2018-07-11T06:27:41.247Z,14.78
2018-07-11T06:28:41.204Z,14.75
2018-07-11T06:29:41.200Z,14.78
2018-07-11T06:30:41.225Z,14.73
2018-07-11T06:31:41.171Z,14.77
2018-07-11T06:32:41.176Z,14.81
2018-07-11T06:33:41.317Z,14.86
2018-07-11T06:34:41.137Z,14.86
2018-07-11T06:35:41.135Z,14.91
2018-07-11T06:36:41.120Z,14.89
2018-07-11T06:37:41.264Z,14.89
2018-07-11T06:38:41.105Z,14.86
2018-07-11T06:39:41.240Z,14.89
2018-07-11T06:40:41.069Z,14.84
2018-07-11T06:41:45.878Z,14.99
2018-07-11T06:45:00.704Z,15.14
2018-07-11T06:45:58.899Z,15.13
2018-07-11T06:46:58.914Z,15.17
2018-07-11T06:47:58.932Z,15.14
2018-07-11T06:48:58.850Z,15.07
2018-07-11T06:49:58.878Z,15.06
2018-07-11T06:50:58.865Z,15.10
2018-07-11T06:51:58.840Z,15.07
2018-07-11T06:52:58.818Z,15.09
2018-07-11T06:53:58.797Z,15.11
2018-07-11T06:54:58.795Z,15.07
2018-07-11T06:55:58.872Z,15.02
2018-07-11T06:56:58.834Z,15.07
2018-07-11T06:57:58.751Z,15.06
2018-07-11T06:58:58.740Z,15.14
2018-07-11T06:59:58.793Z,15.21
2018-07-11T07:00:58.714Z,15.14
2018-07-11T07:01:58.709Z,15.25
2018-07-11T07:02:58.741Z,15.27
2018-07-11T07:03:58.717Z,15.25
2018-07-11T07:04:58.695Z,15.27
2018-07-11T07:05:58.682Z,15.23
2018-07-11T07:06:58.661Z,15.28
2018-07-11T07:07:58.636Z,15.38
2018-07-11T07:08:58.662Z,15.39
2018-07-11T07:09:58.619Z,15.49
2018-07-11T07:10:58.622Z,15.54
2018-07-11T07:11:58.599Z,15.56
2018-07-11T07:12:58.593Z,15.71
2018-07-11T07:13:58.591Z,15.71
2018-07-11T07:14:58.619Z,15.75
2018-07-11T07:15:58.551Z,15.86
2018-07-11T07:16:58.540Z,15.84
2018-07-11T07:17:58.566Z,15.83
2018-07-11T07:18:58.524Z,15.89
2018-07-11T07:19:58.530Z,15.89
2018-07-11T07:20:58.545Z,15.89
2018-07-11T07:21:58.485Z,15.87
2018-07-11T07:22:58.481Z,16.00
2018-07-11T07:23:58.469Z,15.94
2018-07-11T07:24:58.474Z,16.01
2018-07-11T07:25:58.444Z,15.90
2018-07-11T07:26:58.463Z,15.96
2018-07-11T07:27:58.440Z,15.92
2018-07-11T07:28:58.466Z,15.96
2018-07-11T07:29:58.394Z,16.02
2018-07-11T07:30:58.385Z,16.09
2018-07-11T07:31:58.404Z,16.30
2018-07-11T07:32:58.409Z,16.35
2018-07-11T07:33:58.358Z,16.38
2018-07-11T07:34:58.370Z,16.33
2018-07-11T07:35:58.332Z,16.38
2018-07-11T07:36:58.318Z,16.49
2018-07-11T07:37:58.311Z,16.58
2018-07-11T07:38:58.357Z,16.53
2018-07-11T07:39:58.285Z,16.66
2018-07-11T07:40:58.276Z,16.70
2018-07-11T07:42:03.104Z,16.83
2018-07-11T07:42:58.250Z,16.85
2018-07-11T07:43:58.242Z,16.93
2018-07-11T07:44:58.261Z,16.97
2018-07-11T07:45:58.242Z,17.16
2018-07-11T07:46:58.218Z,17.15
2018-07-11T07:47:58.201Z,17.14
2018-07-11T07:48:58.219Z,17.03
2018-07-11T07:49:58.177Z,16.98
2018-07-11T07:50:58.192Z,16.93
2018-07-11T07:51:58.173Z,17.01
2018-07-11T07:52:58.284Z,17.19
2018-07-11T07:53:58.140Z,17.12
2018-07-11T07:54:58.140Z,17.28
2018-07-11T07:55:58.127Z,17.31
2018-07-11T07:56:58.144Z,17.48
2018-07-11T07:57:58.091Z,17.62
2018-07-11T07:58:58.078Z,17.58
2018-07-11T07:59:58.099Z,17.72
2018-07-11T08:00:58.062Z,17.77
2018-07-11T08:01:58.041Z,17.64
2018-07-11T08:02:58.086Z,17.59
2018-07-11T08:03:58.023Z,17.78
2018-07-11T08:04:58.011Z,17.74
2018-07-11T08:05:57.996Z,17.71
2018-07-11T08:06:58.060Z,17.62
2018-07-11T08:07:57.984Z,17.58
2018-07-11T08:08:57.997Z,17.75
2018-07-11T08:09:57.970Z,17.84
2018-07-11T08:10:57.945Z,18.03
2018-07-11T08:11:57.934Z,18.14
2018-07-11T08:12:57.927Z,18.26
2018-07-11T08:13:57.945Z,18.12
2018-07-11T08:14:57.946Z,18.00
2018-07-11T08:15:57.887Z,18.05
2018-07-11T08:16:57.888Z,18.12
2018-07-11T08:17:57.868Z,18.25
2018-07-11T08:18:57.852Z,18.42
2018-07-11T08:19:57.842Z,18.58
2018-07-11T08:20:57.897Z,18.39
2018-07-11T08:21:57.819Z,18.15
2018-07-11T08:22:57.815Z,18.08
2018-07-11T08:23:57.815Z,17.99
2018-07-11T08:24:57.809Z,18.02
2018-07-11T08:25:57.779Z,18.05
2018-07-11T08:26:57.912Z,18.00
2018-07-11T08:28:00.584Z,17.99
2018-07-11T08:28:57.746Z,17.96
2018-07-11T08:29:57.739Z,17.95
2018-07-11T08:30:58.578Z,17.95
2018-07-11T08:31:57.706Z,17.93
2018-07-11T08:32:57.739Z,18.21
2018-07-11T08:33:57.683Z,18.37
2018-07-11T08:34:57.767Z,18.51
2018-07-11T08:35:57.685Z,18.51
2018-07-11T08:36:57.658Z,18.65
2018-07-11T08:37:57.661Z,18.75
2018-07-11T08:38:57.676Z,18.84
2018-07-11T08:39:57.625Z,18.90
2018-07-11T08:40:57.638Z,19.06
2018-07-11T08:41:57.628Z,19.14
2018-07-11T08:43:02.410Z,19.28
2018-07-11T08:43:57.581Z,19.32
2018-07-11T08:44:57.643Z,19.29
2018-07-11T08:45:57.560Z,19.14
2018-07-11T08:46:57.571Z,19.14
2018-07-11T08:47:57.553Z,19.28
2018-07-11T08:48:57.585Z,19.25
2018-07-11T08:49:57.521Z,19.37
2018-07-11T08:50:57.542Z,19.43
2018-07-11T08:51:57.517Z,19.41
2018-07-11T08:52:57.477Z,19.46
2018-07-11T08:53:57.492Z,19.44
2018-07-11T08:54:57.479Z,19.32
2018-07-11T08:55:57.514Z,19.39
2018-07-11T08:56:57.433Z,19.44
2018-07-11T08:57:57.423Z,19.62
2018-07-11T08:58:58.665Z,19.76
2018-07-11T08:59:57.405Z,19.58
2018-07-11T09:00:57.414Z,19.37
2018-07-11T09:01:58.078Z,19.33
2018-07-11T09:02:57.374Z,19.32
2018-07-11T09:03:57.358Z,19.19
2018-07-11T09:04:57.346Z,19.25
2018-07-11T09:05:57.354Z,19.44
2018-07-11T09:06:57.359Z,19.63
2018-07-11T09:07:57.348Z,19.73
2018-07-11T09:08:57.346Z,19.73
2018-07-11T09:09:57.297Z,19.86
2018-07-11T09:10:57.325Z,19.91
2018-07-11T09:11:57.267Z,20.02
2018-07-11T09:12:57.286Z,19.98
2018-07-11T09:13:57.288Z,20.08
2018-07-11T09:14:57.235Z,20.16
2018-07-11T09:15:57.257Z,20.13
2018-07-11T09:16:57.230Z,20.28
2018-07-11T09:17:57.526Z,20.20
2018-07-11T09:18:57.212Z,20.39
2018-07-11T09:19:57.238Z,20.51
2018-07-11T09:20:57.176Z,20.52
2018-07-11T09:21:57.189Z,20.50
2018-07-11T09:22:57.170Z,20.50
2018-07-11T09:23:57.143Z,20.41
2018-07-11T09:24:57.172Z,20.48
2018-07-11T09:25:57.161Z,20.51
2018-07-11T09:26:57.131Z,20.55
2018-07-11T09:27:57.115Z,20.62
2018-07-11T09:28:57.087Z,20.72
2018-07-11T09:29:57.092Z,20.58
2018-07-11T09:30:57.081Z,20.82
2018-07-11T09:31:57.094Z,20.79
2018-07-11T09:32:57.056Z,20.87
2018-07-11T09:33:57.044Z,21.03
2018-07-11T09:34:57.116Z,21.19
2018-07-11T09:35:57.011Z,21.14
2018-07-11T09:36:57.015Z,21.17
2018-07-11T09:37:57.025Z,21.13
2018-07-11T09:38:56.974Z,21.04
2018-07-11T09:39:56.970Z,21.07
2018-07-11T09:40:56.981Z,21.13
2018-07-11T09:41:56.944Z,21.22
2018-07-11T09:42:56.965Z,21.31
2018-07-11T09:44:01.759Z,21.29
2018-07-11T09:44:56.909Z,21.40
2018-07-11T09:45:56.923Z,21.38
2018-07-11T09:46:56.882Z,21.43
2018-07-11T09:47:56.892Z,21.54
2018-07-11T09:48:56.896Z,21.59
2018-07-11T09:49:56.854Z,21.62
2018-07-11T09:50:56.864Z,21.68
2018-07-11T09:51:56.843Z,21.79
2018-07-11T09:52:56.819Z,21.82
2018-07-11T09:53:56.849Z,21.83
2018-07-11T09:54:56.825Z,21.77
2018-07-11T09:55:56.786Z,21.80
2018-07-11T09:56:56.831Z,21.94
2018-07-11T09:57:56.808Z,21.96
2018-07-11T09:58:56.757Z,21.94
2018-07-11T09:59:56.769Z,21.79
2018-07-11T10:00:56.760Z,21.52
2018-07-11T10:01:56.733Z,21.37
2018-07-11T10:02:56.710Z,21.44
2018-07-11T10:03:56.751Z,21.42
2018-07-11T10:04:56.721Z,21.24
2018-07-11T10:05:56.718Z,21.52
2018-07-11T10:06:56.677Z,21.59
2018-07-11T10:07:56.651Z,21.74
2018-07-11T10:08:56.663Z,21.72
2018-07-11T10:09:56.634Z,21.50
2018-07-11T10:10:56.675Z,21.42
2018-07-11T10:11:56.720Z,21.40
2018-07-11T10:12:56.604Z,21.29
2018-07-11T10:13:56.595Z,21.37
2018-07-11T10:14:56.582Z,21.56
2018-07-11T10:15:56.595Z,21.49
2018-07-11T10:16:56.584Z,21.28
2018-07-11T10:17:56.576Z,21.21
2018-07-11T10:18:56.559Z,21.09
2018-07-11T10:19:56.537Z,21.04
2018-07-11T10:20:56.537Z,21.09
2018-07-11T10:21:56.546Z,20.98
2018-07-11T10:22:56.515Z,20.89
2018-07-11T10:23:56.485Z,20.88
2018-07-11T10:24:56.483Z,20.88
2018-07-11T10:25:56.496Z,20.80
2018-07-11T10:26:56.452Z,20.88
2018-07-11T10:27:56.467Z,20.85
2018-07-11T10:28:56.431Z,21.04
2018-07-11T10:29:56.435Z,21.04
2018-07-11T10:30:56.404Z,20.98
2018-07-11T10:31:56.416Z,20.97
2018-07-11T10:32:56.429Z,21.13
2018-07-11T10:33:56.390Z,21.25
2018-07-11T10:34:56.361Z,21.29
2018-07-11T10:35:56.346Z,21.53
2018-07-11T10:36:56.362Z,21.67
2018-07-11T10:37:56.329Z,21.72
2018-07-11T10:38:56.346Z,21.65
2018-07-11T10:39:56.367Z,21.67
2018-07-11T10:40:56.328Z,21.64
2018-07-11T10:41:56.300Z,21.68
2018-07-11T10:42:56.272Z,21.67
2018-07-11T10:43:56.279Z,21.80
2018-07-11T10:45:01.094Z,22.14
2018-07-11T10:45:56.270Z,22.20
2018-07-11T10:46:56.340Z,22.25
2018-07-11T10:47:56.220Z,22.12
2018-07-11T10:48:56.206Z,21.80
2018-07-11T10:49:56.205Z,21.75
2018-07-11T10:50:56.198Z,21.90
2018-07-11T10:52:04.320Z,21.82
2018-07-11T10:52:56.198Z,22.10
2018-07-11T10:53:56.191Z,22.18
2018-07-11T10:54:56.157Z,22.22
2018-07-11T10:55:56.925Z,22.18
2018-07-11T10:56:56.137Z,22.17
2018-07-11T10:57:56.197Z,22.14
2018-07-11T10:58:56.109Z,22.05
2018-07-11T10:59:56.139Z,22.09
2018-07-11T11:01:05.697Z,22.02
2018-07-11T11:01:57.157Z,22.14
2018-07-11T11:02:56.073Z,22.05
2018-07-11T11:03:56.103Z,22.07
2018-07-11T11:04:56.068Z,22.07
2018-07-11T11:05:56.033Z,22.10
2018-07-11T11:06:56.014Z,22.10
2018-07-11T11:07:56.047Z,22.20
2018-07-11T11:08:56.057Z,22.14
2018-07-11T11:09:56.276Z,22.09
2018-07-11T11:10:55.975Z,22.03
2018-07-11T11:11:55.982Z,21.94
2018-07-11T11:12:55.952Z,22.00
2018-07-11T11:13:55.934Z,21.96
2018-07-11T11:14:56.009Z,21.79
2018-07-11T11:15:55.953Z,21.83
2018-07-11T11:16:55.906Z,21.94
2018-07-11T11:17:55.927Z,21.96
2018-07-11T11:18:56.090Z,21.94
2018-07-11T11:19:55.869Z,21.86
2018-07-11T11:20:55.864Z,21.84
2018-07-11T11:21:55.938Z,21.90
2018-07-11T11:22:55.869Z,21.92
2018-07-11T11:23:55.867Z,21.88
2018-07-11T11:24:55.927Z,22.10
2018-07-11T11:25:55.822Z,22.12
2018-07-11T11:26:55.909Z,22.05
2018-07-11T11:27:55.785Z,22.14
2018-07-11T11:28:55.820Z,22.21
2018-07-11T11:29:55.841Z,22.17
2018-07-11T11:30:55.784Z,22.24
2018-07-11T11:31:55.814Z,22.22
2018-07-11T11:32:55.781Z,22.15
2018-07-11T11:33:55.738Z,22.14
2018-07-11T11:34:55.779Z,22.05
2018-07-11T11:35:55.826Z,22.05
2018-07-11T11:36:55.695Z,22.02
2018-07-11T11:37:55.683Z,21.98
2018-07-11T11:38:55.762Z,21.88
2018-07-11T11:39:55.689Z,21.86
2018-07-11T11:40:55.662Z,21.98
2018-07-11T11:41:55.814Z,22.18
2018-07-11T11:42:55.692Z,22.18
2018-07-11T11:43:55.730Z,22.10
2018-07-11T11:44:55.746Z,22.43
2018-07-11T11:46:00.419Z,22.58
2018-07-11T11:46:55.599Z,22.61
2018-07-11T11:47:55.586Z,22.77
2018-07-11T11:48:55.638Z,22.75
2018-07-11T11:49:55.644Z,22.67
2018-07-11T11:50:55.564Z,22.62
2018-07-11T11:51:55.529Z,22.57
2018-07-11T11:52:55.548Z,22.58
2018-07-11T11:53:55.552Z,22.57
2018-07-11T11:54:55.497Z,22.61
2018-07-11T11:55:55.595Z,22.55
2018-07-11T11:56:55.542Z,22.43
2018-07-11T11:57:55.522Z,22.57
2018-07-11T11:58:55.459Z,22.60
2018-07-11T11:59:55.490Z,22.76
2018-07-11T12:00:55.445Z,22.76
2018-07-11T12:01:55.418Z,22.80
2018-07-11T12:02:55.454Z,22.72
2018-07-11T12:03:55.423Z,22.73
2018-07-11T12:04:55.393Z,22.79
2018-07-11T12:05:55.383Z,22.85
2018-07-11T12:06:55.366Z,22.94
2018-07-11T12:07:55.433Z,22.82
2018-07-11T12:08:55.401Z,22.80
2018-07-11T12:09:55.382Z,22.88
2018-07-11T12:10:55.388Z,22.67
2018-07-11T12:11:55.354Z,22.76
2018-07-11T12:12:55.298Z,22.70
2018-07-11T12:13:55.290Z,22.62
2018-07-11T12:14:55.368Z,22.58
2018-07-11T12:15:55.275Z,22.47
2018-07-11T12:16:55.257Z,22.40
2018-07-11T12:17:55.296Z,22.24
2018-07-11T12:18:55.256Z,22.17
2018-07-11T12:19:55.214Z,22.14
2018-07-11T12:20:55.241Z,22.14
2018-07-11T12:21:55.264Z,22.10
2018-07-11T12:22:55.201Z,22.12
2018-07-11T12:23:55.240Z,22.06
2018-07-11T12:24:55.230Z,22.09
2018-07-11T12:25:55.172Z,22.03
2018-07-11T12:26:55.182Z,22.05
2018-07-11T12:27:55.175Z,22.14
2018-07-11T12:28:55.168Z,22.14
2018-07-11T12:29:55.157Z,22.24
2018-07-11T12:30:55.108Z,22.31
2018-07-11T12:31:55.138Z,22.55
2018-07-11T12:32:55.117Z,22.60
2018-07-11T12:33:55.080Z,22.77
2018-07-11T12:34:55.081Z,22.85
2018-07-11T12:35:55.062Z,23.01
2018-07-11T12:36:55.064Z,23.00
2018-07-11T12:37:55.061Z,22.97
2018-07-11T12:38:55.201Z,22.98
2018-07-11T12:39:55.009Z,23.04
2018-07-11T12:40:55.001Z,23.05
2018-07-11T12:41:55.143Z,23.04
2018-07-11T12:42:55.020Z,22.90
2018-07-11T12:45:04.468Z,22.83
2018-07-11T12:46:04.347Z,22.77
2018-07-11T12:47:09.068Z,22.76
2018-07-11T12:48:04.317Z,22.72
2018-07-11T12:49:04.243Z,22.54
2018-07-11T12:50:04.345Z,22.52
2018-07-11T12:51:04.210Z,22.45
2018-07-11T12:52:04.214Z,22.52
2018-07-11T12:53:04.223Z,22.54
2018-07-11T12:54:04.216Z,22.60
2018-07-11T12:55:04.190Z,22.47
2018-07-11T12:56:04.208Z,22.43
2018-07-11T12:57:04.144Z,22.39